Time;durP1;ratioP1;P1;durP2;ratioP2;P2;SDS_P1;SDS_P2;PMS_P1;PMS_P2;Temp;Humidity;BMP_temperature;BMP_pressure;BME280_temperature;BME280_humidity;BME280_pressure;Samples;Min_cycle;Max_cycle;Signal;HPM_P1;HPM_P2
2023/10/04 00:00:19;;;;;;;2.17;1.25;;;19.70;1.00;;;;;;5241106;28;19950;-67
2023/10/04 00:03:01;;;;;;;1.52;1.17;;;19.70;1.00;;;;;;5196567;28;20040;-66
2023/10/04 00:05:36;;;;;;;2.35;1.40;;;19.70;99.90;;;;;;5250394;28;20046;-66
2023/10/04 00:08:11;;;;;;;2.72;1.38;;;19.70;99.90;;;;;;5219520;28;20050;-65
2023/10/04 00:10:44;;;;;;;1.85;1.25;;;19.70;99.90;;;;;;5201708;28;20029;-65
2023/10/04 00:13:18;;;;;;;2.70;1.50;;;19.70;99.90;;;;;;5223138;28;20071;-67
2023/10/04 00:15:52;;;;;;;3.15;1.55;;;19.70;99.90;;;;;;5197860;28;20340;-65
2023/10/04 00:18:27;;;;;;;2.38;1.83;;;19.70;99.90;;;;;;5216711;28;20025;-65
2023/10/04 00:21:01;;;;;;;1.63;1.13;;;19.70;99.90;;;;;;5219285;28;20044;-64
2023/10/04 00:23:35;;;;;;;2.38;1.23;;;19.70;1.00;;;;;;5216362;28;20049;-65
2023/10/04 00:26:10;;;;;;;1.88;1.23;;;19.70;1.00;;;;;;5200574;28;20043;-67
2023/10/04 00:28:42;;;;;;;3.38;1.13;;;19.60;1.00;;;;;;5235538;28;20043;-64
2023/10/04 00:31:13;;;;;;;2.42;1.05;;;19.50;1.00;;;;;;5219131;28;20040;-64
2023/10/04 00:33:49;;;;;;;1.20;1.05;;;19.50;1.00;;;;;;5221052;28;20501;-65
2023/10/04 00:36:20;;;;;;;6.40;1.15;;;19.40;1.00;;;;;;5239337;28;20366;-64
2023/10/04 00:38:59;;;;;;;1.77;1.20;;;19.30;1.00;;;;;;5221359;28;20055;-65
2023/10/04 00:41:33;;;;;;;1.25;0.80;;;19.30;1.00;;;;;;5219292;28;20587;-65
2023/10/04 00:44:10;;;;;;;3.65;1.60;;;19.20;1.00;;;;;;5236795;28;20162;-66
2023/10/04 00:46:46;;;;;;;1.75;1.17;;;19.10;1.00;;;;;;5237011;28;20040;-65
2023/10/04 00:49:18;;;;;;;1.40;1.08;;;19.00;1.00;;;;;;5238853;28;20032;-65
2023/10/04 00:51:54;;;;;;;2.05;1.13;;;18.90;1.60;;;;;;5217358;28;20135;-65
2023/10/04 00:54:29;;;;;;;2.83;1.17;;;18.80;55.80;;;;;;5183786;28;20031;-65
2023/10/04 00:57:04;;;;;;;2.30;1.60;;;18.80;51.60;;;;;;5211960;28;20048;-65
2023/10/04 00:59:36;;;;;;;1.38;1.10;;;18.80;86.60;;;;;;5219497;28;20045;-64
2023/10/04 01:02:10;;;;;;;1.10;0.90;;;18.70;99.90;;;;;;5268859;23;20124;-65
2023/10/04 01:04:41;;;;;;;2.15;1.35;;;18.60;99.90;;;;;;5182762;28;20041;-66
2023/10/04 01:07:21;;;;;;;1.58;1.20;;;18.60;99.90;;;;;;5200792;28;20037;-65
2023/10/04 01:09:55;;;;;;;2.25;1.10;;;18.50;99.90;;;;;;5166633;28;20037;-64
2023/10/04 01:12:30;;;;;;;1.67;1.20;;;18.40;99.90;;;;;;5198054;28;20025;-67
2023/10/04 01:15:19;;;;;;;1.48;1.15;;;18.40;99.90;;;;;;5195275;28;20074;-66
2023/10/04 01:17:55;;;;;;;2.70;1.38;;;18.30;99.90;;;;;;5200388;28;20047;-66
2023/10/04 01:20:30;;;;;;;1.10;0.98;;;18.30;99.90;;;;;;5199030;28;20511;-68
2023/10/04 01:23:05;;;;;;;1.98;1.42;;;18.20;99.90;;;;;;5163864;28;20033;-66
2023/10/04 01:25:41;;;;;;;2.17;1.35;;;18.20;99.90;;;;;;5163927;28;20041;-65
2023/10/04 01:28:27;;;;;;;2.70;1.73;;;18.10;99.90;;;;;;5182071;28;20037;-66
2023/10/04 01:31:07;;;;;;;1.38;1.10;;;18.10;99.90;;;;;;5180444;28;20040;-65
2023/10/04 01:33:42;;;;;;;1.40;1.20;;;18.00;99.90;;;;;;5174435;28;20033;-65
2023/10/04 01:36:16;;;;;;;2.17;1.30;;;17.90;99.90;;;;;;5189406;28;20465;-65
2023/10/04 01:38:51;;;;;;;1.55;1.42;;;18.00;99.90;;;;;;5185944;28;20044;-65
2023/10/04 01:41:26;;;;;;;2.05;1.50;;;17.80;99.90;;;;;;5182904;28;20055;-64
2023/10/04 01:44:01;;;;;;;0.93;0.93;;;17.80;1.00;;;;;;5181822;28;20045;-64
2023/10/04 01:46:36;;;;;;;1.40;1.30;;;17.70;1.00;;;;;;5178526;28;20152;-66
2023/10/04 01:49:10;;;;;;;2.00;1.80;;;17.70;1.00;;;;;;5180361;28;20088;-64
2023/10/04 01:51:43;;;;;;;2.47;1.10;;;17.70;1.00;;;;;;5189006;28;20049;-63
2023/10/04 01:54:15;;;;;;;1.85;0.90;;;17.60;1.00;;;;;;5148367;28;20029;-64
2023/10/04 01:56:49;;;;;;;1.33;1.20;;;17.60;1.00;;;;;;5163577;28;20094;-65
2023/10/04 01:59:22;;;;;;;1.50;1.15;;;17.60;1.00;;;;;;5192988;28;20035;-68
2023/10/04 02:02:00;;;;;;;4.50;1.08;;;17.60;1.00;;;;;;5189605;28;20059;-66
2023/10/04 02:04:36;;;;;;;1.92;0.93;;;17.50;1.00;;;;;;5198703;28;20220;-67
2023/10/04 02:07:08;;;;;;;1.80;1.13;;;17.50;1.00;;;;;;5179595;28;20219;-65
2023/10/04 02:09:44;;;;;;;2.53;1.10;;;17.40;1.00;;;;;;5192489;28;20039;-65
2023/10/04 02:12:18;;;;;;;1.58;1.10;;;17.30;1.00;;;;;;5188649;28;20661;-65
2023/10/04 02:14:52;;;;;;;1.83;1.10;;;17.30;99.90;;;;;;5191274;28;20057;-65
2023/10/04 02:17:26;;;;;;;2.10;1.50;;;17.20;1.00;;;;;;5211237;28;20069;-64
2023/10/04 02:20:03;;;;;;;2.25;1.20;;;17.10;1.00;;;;;;5210589;28;20336;-64
2023/10/04 02:22:37;;;;;;;1.45;1.08;;;17.00;1.00;;;;;;5182235;28;20044;-64
2023/10/04 02:25:13;;;;;;;4.10;1.30;;;16.90;99.90;;;;;;5198617;28;20033;-65
2023/10/04 02:27:45;;;;;;;1.10;1.00;;;16.90;99.90;;;;;;5183590;28;20037;-66
2023/10/04 02:30:21;;;;;;;1.38;1.23;;;16.90;1.00;;;;;;5185450;28;20147;-65
2023/10/04 02:33:00;;;;;;;2.72;1.27;;;16.80;1.00;;;;;;5181975;28;20025;-64
2023/10/04 02:35:41;;;;;;;2.63;1.45;;;16.70;1.00;;;;;;5179899;28;20044;-64
2023/10/04 02:38:23;;;;;;;1.63;1.20;;;16.70;71.30;;;;;;5198924;28;20113;-64
2023/10/04 02:40:54;;;;;;;1.80;1.30;;;16.60;99.90;;;;;;5194737;28;20060;-65
2023/10/04 02:43:27;;;;;;;1.23;1.13;;;16.50;99.90;;;;;;5152296;28;20076;-64
2023/10/04 02:45:59;;;;;;;1.70;1.08;;;16.50;1.00;;;;;;5146549;28;20047;-65
2023/10/04 02:48:35;;;;;;;2.35;1.20;;;16.50;1.00;;;;;;5198156;28;20030;-64
2023/10/04 02:51:07;;;;;;;1.90;1.20;;;16.40;1.00;;;;;;5166093;28;20296;-65
2023/10/04 02:53:43;;;;;;;1.27;1.00;;;16.30;1.00;;;;;;5173645;28;20483;-66
2023/10/04 02:56:14;;;;;;;2.05;1.33;;;16.30;1.00;;;;;;5163218;28;20041;-64
2023/10/04 02:58:47;;;;;;;1.90;1.70;;;16.30;1.00;;;;;;5178749;28;20092;-65
2023/10/04 03:01:26;;;;;;;2.28;1.63;;;16.30;1.00;;;;;;5136591;28;20045;-65
2023/10/04 03:03:58;;;;;;;2.45;1.20;;;16.20;1.00;;;;;;5176612;28;20021;-64
2023/10/04 03:06:31;;;;;;;1.33;1.10;;;16.20;1.00;;;;;;5182591;28;20490;-64
2023/10/04 03:09:06;;;;;;;1.45;1.10;;;16.20;1.00;;;;;;5179694;28;20041;-65
2023/10/04 03:11:45;;;;;;;2.15;1.27;;;16.20;1.00;;;;;;5194112;28;20041;-64
2023/10/04 03:14:25;;;;;;;4.35;1.38;;;16.20;1.00;;;;;;5166519;28;20048;-64
2023/10/04 03:17:02;;;;;;;1.50;1.35;;;16.10;1.00;;;;;;5195661;28;20113;-65
2023/10/04 03:19:38;;;;;;;2.10;1.30;;;16.10;1.00;;;;;;5179296;28;20513;-65
2023/10/04 03:22:10;;;;;;;1.17;1.08;;;16.10;1.00;;;;;;5163877;28;20053;-64
2023/10/04 03:24:41;;;;;;;1.35;1.20;;;16.10;1.00;;;;;;5164596;28;20049;-66
2023/10/04 03:27:13;;;;;;;1.77;1.20;;;16.10;1.00;;;;;;5195928;28;20037;-65
2023/10/04 03:29:45;;;;;;;2.30;1.30;;;16.00;1.00;;;;;;5179056;28;20055;-64
2023/10/04 03:32:19;;;;;;;1.35;1.20;;;16.00;1.00;;;;;;5182266;28;20061;-65
2023/10/04 03:34:53;;;;;;;1.75;1.30;;;15.90;1.00;;;;;;5143572;28;20054;-64
2023/10/04 03:37:31;;;;;;;1.73;1.35;;;15.90;1.00;;;;;;5176106;28;20041;-66
2023/10/04 03:40:07;;;;;;;2.10;1.23;;;15.90;1.00;;;;;;5163471;28;20047;-64
2023/10/04 03:42:41;;;;;;;3.42;1.50;;;15.80;1.00;;;;;;5177765;28;20084;-64
2023/10/04 03:45:17;;;;;;;;;;;15.80;1.00;;;;;;5158863;28;20045;-65
2023/10/04 03:47:52;;;;;;;2.03;1.20;;;15.80;1.00;;;;;;5144012;28;19923;-64
2023/10/04 03:50:27;;;;;;;3.10;1.23;;;15.80;1.00;;;;;;5144965;28;20102;-65
2023/10/04 03:53:01;;;;;;;2.28;1.20;;;15.70;49.80;;;;;;5174294;28;20101;-66
2023/10/04 03:55:34;;;;;;;2.17;1.40;;;15.70;98.60;;;;;;5202615;28;20068;-64
2023/10/04 03:58:07;;;;;;;1.52;1.25;;;15.70;99.90;;;;;;5162053;28;20067;-64
2023/10/04 04:00:42;;;;;;;1.93;1.30;;;15.60;99.90;;;;;;5158223;28;20350;-65
2023/10/04 04:03:14;;;;;;;;;;;15.60;99.90;;;;;;5177861;28;20047;-64
2023/10/04 04:05:45;;;;;;;1.40;1.20;;;15.60;99.90;;;;;;5178529;28;19919;-65
2023/10/04 04:08:17;;;;;;;1.42;1.10;;;15.50;99.90;;;;;;5176573;28;21324;-64
2023/10/04 04:10:50;;;;;;;1.30;1.20;;;15.50;99.90;;;;;;5189133;28;20056;-67
2023/10/04 04:13:24;;;;;;;1.40;1.30;;;15.40;99.90;;;;;;5162707;28;20538;-66
2023/10/04 04:16:00;;;;;;;1.75;1.60;;;15.40;1.00;;;;;;5162276;28;20507;-67
2023/10/04 04:18:37;;;;;;;2.20;1.23;;;15.30;1.00;;;;;;5197135;28;20226;-66
2023/10/04 04:21:11;;;;;;;1.60;1.50;;;15.10;1.00;;;;;;5195197;28;20115;-66
2023/10/04 04:23:46;;;;;;;1.55;1.33;;;15.10;1.00;;;;;;5160623;28;20057;-64
2023/10/04 04:26:17;;;;;;;1.65;1.50;;;15.10;1.00;;;;;;5164122;28;20049;-66
2023/10/04 04:28:49;;;;;;;2.00;1.45;;;15.00;1.00;;;;;;5163670;28;20075;-66
2023/10/04 04:31:26;;;;;;;2.78;1.50;;;15.00;1.00;;;;;;5162915;28;20041;-66
2023/10/04 04:33:58;;;;;;;1.83;1.58;;;14.90;1.00;;;;;;5168170;28;20037;-65
2023/10/04 04:36:34;;;;;;;1.88;1.40;;;14.90;1.00;;;;;;5167149;28;20037;-67
2023/10/04 04:39:11;;;;;;;3.20;1.70;;;14.90;1.00;;;;;;5182150;28;20045;-64
2023/10/04 04:41:51;;;;;;;3.05;1.23;;;14.80;1.00;;;;;;5182653;28;20053;-66
2023/10/04 04:44:33;;;;;;;2.42;1.50;;;14.80;1.00;;;;;;5164915;28;20034;-65
2023/10/04 04:47:07;;;;;;;1.92;1.77;;;14.80;1.00;;;;;;5161954;28;20033;-64
2023/10/04 04:49:42;;;;;;;2.60;1.40;;;14.80;1.00;;;;;;5179794;28;20050;-65
2023/10/04 04:52:18;;;;;;;2.83;1.55;;;14.80;1.00;;;;;;5179892;28;20078;-64
2023/10/04 04:54:49;;;;;;;1.75;1.48;;;14.80;1.00;;;;;;5146704;28;20061;-65
2023/10/04 04:57:21;;;;;;;1.60;1.40;;;14.70;1.00;;;;;;5173837;28;20374;-64
2023/10/04 04:59:55;;;;;;;1.88;1.50;;;14.70;1.00;;;;;;5183205;28;20041;-66
2023/10/04 05:02:32;;;;;;;1.50;1.40;;;14.60;3.00;;;;;;5156030;28;20564;-65
2023/10/04 05:05:04;;;;;;;1.60;1.50;;;14.50;62.90;;;;;;5182216;28;20047;-66
2023/10/04 05:07:41;;;;;;;2.70;1.30;;;14.40;99.90;;;;;;5201919;28;20045;-66
2023/10/04 05:10:18;;;;;;;4.40;1.58;;;14.40;99.90;;;;;;5185549;28;20041;-65
2023/10/04 05:12:50;;;;;;;2.15;1.73;;;14.50;87.00;;;;;;5180495;28;20056;-65
2023/10/04 05:15:32;;;;;;;1.77;1.35;;;14.50;28.00;;;;;;5166156;28;20037;-65
2023/10/04 05:18:16;;;;;;;5.13;1.42;;;14.40;99.90;;;;;;5196075;28;20030;-65
2023/10/04 05:20:54;;;;;;;2.47;1.70;;;14.40;99.90;;;;;;5184696;28;20036;-65
2023/10/04 05:23:31;;;;;;;1.48;1.17;;;14.50;99.90;;;;;;5183031;28;20045;-65
2023/10/04 05:26:08;;;;;;;2.72;1.70;;;14.40;99.90;;;;;;5168240;28;20053;-66
2023/10/04 05:28:40;;;;;;;1.83;1.38;;;14.40;99.90;;;;;;5177171;28;20049;-64
2023/10/04 05:31:17;;;;;;;1.67;1.50;;;14.30;99.90;;;;;;5184095;28;20044;-64
2023/10/04 05:33:48;;;;;;;1.88;1.60;;;14.30;99.90;;;;;;5181911;28;20406;-66
2023/10/04 05:36:24;;;;;;;1.58;1.35;;;14.20;99.90;;;;;;5185478;28;20040;-65
2023/10/04 05:39:03;;;;;;;2.05;1.40;;;14.20;99.90;;;;;;5200865;28;20026;-65
2023/10/04 05:41:39;;;;;;;4.10;1.60;;;14.10;99.90;;;;;;5200065;28;20029;-65
2023/10/04 05:44:10;;;;;;;2.20;1.70;;;14.30;99.90;;;;;;5168488;28;20055;-64
2023/10/04 05:46:45;;;;;;;1.50;1.40;;;14.30;99.90;;;;;;5183861;28;20049;-66
2023/10/04 05:49:22;;;;;;;3.53;1.50;;;14.50;99.90;;;;;;5152358;28;20314;-65
2023/10/04 05:51:54;;;;;;;2.05;1.42;;;14.50;99.90;;;;;;5149141;28;20057;-65
2023/10/04 05:54:25;;;;;;;2.80;1.13;;;14.60;6.00;;;;;;5210274;28;20049;-65
2023/10/04 05:56:59;;;;;;;1.40;1.30;;;14.80;1.00;;;;;;5167891;28;20029;-65
2023/10/04 05:59:34;;;;;;;3.28;1.63;;;14.80;1.00;;;;;;5165829;28;20053;-68
2023/10/04 06:02:16;;;;;;;2.03;1.30;;;14.90;1.00;;;;;;5200300;28;20043;-67
2023/10/04 06:04:56;;;;;;;2.33;1.20;;;15.00;1.00;;;;;;5200606;28;20051;-63
2023/10/04 06:07:29;;;;;;;1.85;1.55;;;15.10;1.00;;;;;;5185489;28;20022;-66
2023/10/04 06:10:01;;;;;;;2.20;1.50;;;15.10;99.90;;;;;;5183737;28;20371;-67
2023/10/04 06:12:38;;;;;;;2.83;1.52;;;15.20;99.90;;;;;;5164525;28;20069;-64
2023/10/04 06:15:16;;;;;;;2.25;1.60;;;15.20;99.90;;;;;;5192340;28;20635;-65
2023/10/04 06:17:56;;;;;;;1.83;1.40;;;15.30;99.90;;;;;;5184241;28;20044;-64
2023/10/04 06:20:28;;;;;;;3.17;1.60;;;15.30;99.90;;;;;;5172366;28;20356;-65
2023/10/04 06:23:11;;;;;;;3.03;1.40;;;15.30;99.90;;;;;;5186506;28;20041;-65
2023/10/04 06:25:52;;;;;;;1.67;1.17;;;15.20;1.00;;;;;;5179501;28;20033;-65
2023/10/04 06:28:24;;;;;;;5.35;1.48;;;15.20;1.00;;;;;;5169765;28;20037;-64
2023/10/04 06:31:01;;;;;;;1.60;1.48;;;15.10;1.00;;;;;;5192347;28;20034;-64
2023/10/04 06:33:33;;;;;;;2.03;1.38;;;15.10;1.00;;;;;;5189183;28;20345;-64
2023/10/04 06:36:04;;;;;;;5.70;1.70;;;15.20;1.00;;;;;;5192792;28;20350;-65
2023/10/04 06:38:36;;;;;;;3.38;1.60;;;15.30;1.00;;;;;;5216978;28;20037;-65
2023/10/04 06:41:07;;;;;;;3.75;1.75;;;15.40;99.90;;;;;;5201291;28;20087;-65
2023/10/04 06:43:41;;;;;;;1.80;1.33;;;15.50;99.90;;;;;;5201628;28;20560;-65
2023/10/04 06:46:13;;;;;;;2.60;1.48;;;15.60;99.90;;;;;;5180526;28;20041;-65
2023/10/04 06:48:48;;;;;;;5.88;1.65;;;15.70;99.90;;;;;;5207422;28;20056;-65
2023/10/04 06:51:21;;;;;;;2.10;1.50;;;15.80;1.00;;;;;;5183559;28;20183;-65
2023/10/04 06:53:53;;;;;;;2.00;1.52;;;15.90;1.00;;;;;;5177172;28;20044;-65
2023/10/04 06:56:24;;;;;;;2.80;1.80;;;16.00;1.00;;;;;;5181025;28;20632;-66
2023/10/04 06:58:59;;;;;;;1.83;1.40;;;16.20;1.00;;;;;;5173361;28;20037;-65
2023/10/04 07:01:33;;;;;;;;;;;16.20;1.00;;;;;;5161755;28;20432;-67
2023/10/04 07:04:07;;;;;;;1.90;1.00;;;16.40;1.00;;;;;;5198420;28;20233;-66
2023/10/04 07:06:38;;;;;;;1.60;1.20;;;16.50;99.90;;;;;;5183262;28;20458;-67
2023/10/04 07:09:12;;;;;;;1.90;1.45;;;16.50;99.90;;;;;;5197056;28;20037;-67
2023/10/04 07:11:44;;;;;;;2.38;1.67;;;16.60;93.30;;;;;;5182730;28;20584;-66
2023/10/04 07:14:15;;;;;;;1.25;1.15;;;16.80;1.00;;;;;;5182594;28;20041;-66
2023/10/04 07:16:52;;;;;;;1.33;1.20;;;17.00;1.00;;;;;;5197964;28;20029;-67
2023/10/04 07:19:23;;;;;;;2.03;1.40;;;17.20;1.00;;;;;;5166669;28;20245;-66
2023/10/04 07:21:57;;;;;;;2.03;1.48;;;17.50;1.00;;;;;;5181236;28;20033;-66
2023/10/04 07:24:32;;;;;;;2.47;1.60;;;17.40;99.90;;;;;;5183382;28;20044;-67
2023/10/04 07:27:10;;;;;;;1.90;1.20;;;17.50;99.90;;;;;;5177131;28;20474;-65
2023/10/04 07:29:47;;;;;;;1.90;1.52;;;17.20;99.90;;;;;;5167490;28;20041;-67
2023/10/04 07:32:23;;;;;;;1.55;1.42;;;17.00;99.90;;;;;;5190636;28;20395;-67
2023/10/04 07:34:57;;;;;;;1.58;1.48;;;17.10;99.90;;;;;;5184166;28;20337;-67
2023/10/04 07:37:28;;;;;;;2.47;1.50;;;17.20;92.20;;;;;;5199989;28;20021;-65
2023/10/04 07:40:00;;;;;;;1.92;1.17;;;17.40;4.50;;;;;;5182729;28;20041;-65
2023/10/04 07:42:34;;;;;;;2.65;1.50;;;17.40;1.00;;;;;;5199219;28;20076;-65
2023/10/04 07:45:07;;;;;;;2.90;2.00;;;17.30;1.00;;;;;;5191425;28;20052;-65
2023/10/04 07:47:43;;;;;;;3.38;1.55;;;17.10;1.00;;;;;;5176713;28;20052;-65
2023/10/04 07:50:22;;;;;;;3.55;2.13;;;16.90;1.00;;;;;;5166861;28;20045;-66
2023/10/04 07:53:00;;;;;;;4.63;1.50;;;16.90;1.00;;;;;;5178579;28;20034;-65
2023/10/04 07:55:33;;;;;;;3.58;1.75;;;16.60;34.70;;;;;;5129602;28;20041;-65
2023/10/04 07:58:05;;;;;;;2.22;1.40;;;16.70;99.90;;;;;;5200688;28;20579;-66
2023/10/04 08:00:36;;;;;;;1.58;1.30;;;16.70;99.90;;;;;;5155609;28;20029;-65
2023/10/04 08:03:08;;;;;;;2.00;1.38;;;16.90;91.40;;;;;;5198348;28;20081;-69
2023/10/04 08:05:40;;;;;;;1.70;1.25;;;17.00;93.10;;;;;;5183605;28;20041;-67
2023/10/04 08:08:11;;;;;;;2.05;1.63;;;17.30;1.00;;;;;;5172759;28;20049;-65
2023/10/04 08:10:47;;;;;;;4.03;1.92;;;17.50;1.00;;;;;;5164692;28;20056;-65
2023/10/04 08:13:23;;;;;;;2.75;1.60;;;17.20;1.00;;;;;;5186716;28;20246;-65
2023/10/04 08:15:55;;;;;;;2.15;1.60;;;17.00;1.00;;;;;;5195176;28;20037;-66
2023/10/04 08:18:32;;;;;;;2.63;1.48;;;16.80;1.00;;;;;;5196491;28;20333;-66
2023/10/04 08:21:09;;;;;;;2.10;1.50;;;16.90;1.00;;;;;;5196284;28;20026;-65
2023/10/04 08:23:40;;;;;;;1.85;1.45;;;16.90;1.00;;;;;;5169083;28;20051;-65
2023/10/04 08:26:14;;;;;;;1.65;1.52;;;17.00;1.00;;;;;;5204148;28;20029;-65
2023/10/04 08:28:45;;;;;;;3.55;1.67;;;17.20;1.00;;;;;;5185518;28;20045;-65
2023/10/04 08:31:22;;;;;;;2.05;1.52;;;17.20;1.00;;;;;;5183807;28;20194;-65
2023/10/04 08:33:58;;;;;;;3.45;1.80;;;17.40;1.00;;;;;;5178951;28;20411;-65
2023/10/04 08:36:33;;;;;;;2.63;1.67;;;17.40;1.00;;;;;;5190992;28;20052;-67
2023/10/04 08:39:10;;;;;;;4.18;1.80;;;17.40;1.00;;;;;;5184937;28;20037;-66
2023/10/04 08:41:42;;;;;;;2.60;1.70;;;17.60;1.00;;;;;;5173653;28;20049;-65
2023/10/04 08:44:13;;;;;;;1.70;1.60;;;17.70;1.00;;;;;;5185758;28;20139;-66
2023/10/04 08:46:53;;;;;;;2.95;1.88;;;17.90;1.00;;;;;;5163342;28;20041;-66
2023/10/04 08:49:42;;;;;;;3.17;1.70;;;17.80;1.00;;;;;;5165646;28;20049;-66
2023/10/04 08:52:31;;;;;;;3.30;1.92;;;17.60;1.00;;;;;;5183211;28;20037;-66
2023/10/04 08:55:16;;;;;;;2.55;1.90;;;17.70;1.00;;;;;;5164996;28;20046;-67
2023/10/04 08:57:51;;;;;;;2.95;1.75;;;17.60;1.00;;;;;;5186174;28;20337;-66
2023/10/04 09:00:29;;;;;;;1.52;1.40;;;17.90;1.00;;;;;;5182502;28;20038;-65
2023/10/04 09:03:04;;;;;;;4.60;1.80;;;18.10;1.00;;;;;;5152195;28;20049;-65
2023/10/04 09:05:45;;;;;;;3.13;2.17;;;18.10;1.00;;;;;;5213128;28;20237;-67
2023/10/04 09:08:24;;;;;;;1.50;1.20;;;18.10;1.00;;;;;;5170298;28;20037;-65
2023/10/04 09:10:58;;;;;;;1.95;1.30;;;18.20;1.00;;;;;;5184328;28;20044;-66
2023/10/04 09:13:30;;;;;;;3.30;2.08;;;18.10;1.00;;;;;;5168584;28;20034;-65
2023/10/04 09:16:22;;;;;;;3.80;1.70;;;18.10;1.00;;;;;;5179592;28;20029;-65
2023/10/04 09:19:13;;;;;;;2.42;1.23;;;17.90;1.00;;;;;;5150135;28;20573;-65
2023/10/04 09:21:56;;;;;;;2.05;1.50;;;17.70;1.00;;;;;;5210286;28;20041;-66
2023/10/04 09:24:27;;;;;;;1.63;1.52;;;17.50;1.00;;;;;;5167404;28;20033;-65
2023/10/04 09:26:59;;;;;;;2.60;1.67;;;17.40;1.00;;;;;;5192051;28;20037;-65
2023/10/04 09:29:36;;;;;;;3.50;1.48;;;17.50;1.00;;;;;;5181299;28;20045;-65
2023/10/04 09:32:16;;;;;;;2.35;1.48;;;17.50;1.00;;;;;;5194082;28;20396;-65
2023/10/04 09:34:59;;;;;;;1.40;1.30;;;17.60;1.00;;;;;;5210640;28;20029;-66
2023/10/04 09:37:31;;;;;;;1.80;1.70;;;17.70;1.00;;;;;;5182332;28;20055;-66
2023/10/04 09:40:13;;;;;;;3.72;1.50;;;17.70;1.00;;;;;;5175566;28;20044;-65
2023/10/04 09:42:51;;;;;;;2.80;1.58;;;17.70;1.00;;;;;;5181730;28;20041;-65
2023/10/04 09:45:27;;;;;;;2.00;1.42;;;17.70;99.90;;;;;;5173046;28;20033;-65
2023/10/04 09:48:03;;;;;;;3.35;1.70;;;17.70;99.90;;;;;;5187176;28;20051;-65
2023/10/04 09:50:37;;;;;;;1.95;1.52;;;17.80;99.90;;;;;;5183665;28;20044;-65
2023/10/04 09:53:12;;;;;;;1.43;1.30;;;18.70;99.90;;;;;;5198641;28;20055;-66
2023/10/04 09:55:48;;;;;;;1.20;1.10;;;18.70;19.40;;;;;;5165539;28;20254;-65
2023/10/04 09:58:26;;;;;;;1.90;1.58;;;18.40;1.00;;;;;;5178322;28;20033;-67
2023/10/04 10:01:11;;;;;;;1.45;1.15;;;18.30;1.00;;;;;;5180412;28;20021;-65
2023/10/04 10:04:07;;;;;;;2.30;1.38;;;17.90;1.00;;;;;;5166689;28;20037;-65
2023/10/04 10:07:15;;;;;;;1.67;1.20;;;17.80;1.00;;;;;;5168612;28;20048;-66
2023/10/04 10:10:21;;;;;;;1.73;1.63;;;17.70;1.00;;;;;;5201887;28;20356;-66
2023/10/04 10:12:57;;;;;;;1.35;1.25;;;17.60;1.00;;;;;;5126982;28;20118;-65
2023/10/04 10:15:34;;;;;;;1.75;1.63;;;17.60;1.00;;;;;;5144342;28;21717;-66
2023/10/04 10:18:09;;;;;;;1.92;1.30;;;17.60;1.00;;;;;;5161732;28;20050;-66
2023/10/04 10:20:46;;;;;;;2.42;1.73;;;17.70;1.00;;;;;;5145752;28;20041;-66
2023/10/04 10:23:17;;;;;;;2.30;1.50;;;17.70;1.00;;;;;;5162371;28;20053;-66
2023/10/04 10:26:20;;;;;;;2.15;1.50;;;17.70;1.00;;;;;;5175450;28;20045;-66
2023/10/04 10:29:09;;;;;;;2.45;1.63;;;17.80;1.00;;;;;;5146057;28;20044;-66
2023/10/04 10:31:40;;;;;;;1.98;1.65;;;18.00;1.00;;;;;;5143369;28;20041;-65
2023/10/04 10:34:16;;;;;;;1.80;1.10;;;18.20;1.00;;;;;;5161422;28;20350;-67
2023/10/04 10:37:07;;;;;;;7.35;1.73;;;18.20;1.00;;;;;;5162509;28;20046;-66
2023/10/04 10:39:53;;;;;;;2.63;1.48;;;18.30;1.00;;;;;;5161229;28;20077;-66
2023/10/04 10:42:27;;;;;;;1.40;1.30;;;18.40;1.00;;;;;;5144906;28;20296;-66
2023/10/04 10:45:34;;;;;;;3.05;1.90;;;18.60;1.00;;;;;;5160589;28;20049;-66
2023/10/04 10:48:12;;;;;;;1.60;1.50;;;18.50;1.00;;;;;;5086424;29;20048;-66
2023/10/04 10:50:46;;;;;;;2.08;1.60;;;18.30;1.00;;;;;;5104980;29;20047;-67
2023/10/04 10:53:20;;;;;;;2.97;1.60;;;18.30;1.00;;;;;;5092434;29;20099;-64
2023/10/04 10:55:54;;;;;;;1.42;1.25;;;18.30;1.00;;;;;;5088324;29;20039;-65
2023/10/04 10:58:31;;;;;;;2.03;1.30;;;19.40;1.00;;;;;;5099873;29;20053;-67
2023/10/04 11:01:03;;;;;;;2.35;1.23;;;21.60;1.00;;;;;;5076910;29;20054;-66
2023/10/04 11:03:34;;;;;;;2.80;1.38;;;23.20;99.90;;;;;;5063708;29;20095;-66
2023/10/04 11:06:06;;;;;;;5.72;1.33;;;24.20;99.90;;;;;;5086240;29;20035;-66
2023/10/04 11:08:40;;;;;;;2.17;1.33;;;25.00;45.70;;;;;;5082655;29;20047;-66
2023/10/04 11:11:13;;;;;;;1.77;1.33;;;24.40;1.00;;;;;;5073284;29;20183;-66
2023/10/04 11:13:50;;;;;;;6.93;1.60;;;22.90;1.00;;;;;;5100454;29;20266;-66
2023/10/04 11:16:22;;;;;;;2.92;1.52;;;21.40;1.00;;;;;;5077860;29;20376;-65
2023/10/04 11:18:55;;;;;;;2.08;1.30;;;21.20;1.00;;;;;;5093483;29;20070;-65
2023/10/04 11:21:29;;;;;;;3.75;1.23;;;21.60;1.00;;;;;;5124617;28;20045;-67
2023/10/04 11:24:09;;;;;;;1.73;1.25;;;21.80;1.00;;;;;;5174381;28;20037;-66
2023/10/04 11:26:42;;;;;;;2.10;1.50;;;22.20;1.00;;;;;;5174384;28;20044;-66
2023/10/04 11:29:16;;;;;;;4.07;1.42;;;22.10;1.00;;;;;;5195261;28;20255;-67
2023/10/04 11:31:50;;;;;;;2.15;1.30;;;22.10;1.00;;;;;;5144896;28;20037;-67
2023/10/04 11:34:21;;;;;;;2.38;1.30;;;23.30;1.00;;;;;;5181424;28;20291;-68
2023/10/04 11:37:02;;;;;;;2.05;1.23;;;23.90;1.00;;;;;;5196702;28;20242;-68
2023/10/04 11:39:41;;;;;;;1.77;1.20;;;26.00;1.00;;;;;;5197037;28;20045;-67
2023/10/04 11:42:23;;;;;;;1.83;1.38;;;28.20;1.00;;;;;;5182191;28;20047;-67
2023/10/04 11:44:57;;;;;;;2.80;1.13;;;28.10;1.00;;;;;;5174367;28;20470;-68
2023/10/04 11:47:31;;;;;;;2.33;1.30;;;27.50;1.00;;;;;;5172414;28;20041;-68
2023/10/04 11:50:09;;;;;;;1.52;1.13;;;27.40;99.90;;;;;;5182289;28;20047;-67
2023/10/04 11:52:43;;;;;;;1.92;1.17;;;26.10;1.00;;;;;;5197623;28;20045;-68
2023/10/04 11:55:27;;;;;;;1.95;1.25;;;25.70;2.10;;;;;;5182239;28;20248;-67
2023/10/04 11:58:10;;;;;;;3.43;1.57;;;25.70;99.90;;;;;;5169974;28;20038;-67
2023/10/04 12:00:44;;;;;;;3.42;1.38;;;25.10;1.00;;;;;;5158983;28;20041;-66
2023/10/04 12:03:15;;;;;;;3.17;1.48;;;25.40;34.20;;;;;;5197347;28;20219;-67
2023/10/04 12:05:46;;;;;;;2.08;1.25;;;24.00;1.00;;;;;;5197476;28;20188;-67
2023/10/04 12:08:19;;;;;;;1.85;1.42;;;24.70;99.90;;;;;;5179756;28;20218;-66
2023/10/04 12:10:50;;;;;;;1.95;1.38;;;26.30;1.00;;;;;;5182094;28;20024;-67
2023/10/04 12:13:23;;;;;;;1.45;1.25;;;27.40;73.90;;;;;;5165424;28;20389;-67
2023/10/04 12:15:55;;;;;;;3.58;1.35;;;27.50;99.90;;;;;;5173227;28;20229;-67
2023/10/04 12:18:30;;;;;;;2.05;1.20;;;28.30;1.00;;;;;;5181921;28;20041;-68
2023/10/04 12:21:03;;;;;;;1.75;1.30;;;28.50;99.90;;;;;;5197699;28;20052;-67
2023/10/04 12:23:35;;;;;;;2.78;1.38;;;29.10;99.90;;;;;;5193463;28;20171;-67
2023/10/04 12:26:07;;;;;;;1.45;1.23;;;27.90;1.00;;;;;;5178647;28;20055;-68
2023/10/04 12:28:41;;;;;;;1.95;1.40;;;26.60;81.80;;;;;;5160817;28;20038;-68
2023/10/04 12:31:15;;;;;;;3.15;1.67;;;26.50;1.00;;;;;;5172706;28;20222;-67
2023/10/04 12:33:46;;;;;;;2.30;1.38;;;26.30;92.60;;;;;;5197839;28;20040;-69
2023/10/04 12:36:19;;;;;;;1.38;1.17;;;25.90;1.00;;;;;;5159646;28;20064;-69
2023/10/04 12:38:54;;;;;;;2.25;1.13;;;26.10;1.00;;;;;;5181007;28;20052;-67
2023/10/04 12:41:28;;;;;;;2.33;1.45;;;26.30;1.00;;;;;;5182967;28;20049;-68
2023/10/04 12:44:01;;;;;;;2.00;1.30;;;26.60;99.20;;;;;;5183138;28;20041;-69
2023/10/04 12:46:37;;;;;;;2.92;1.38;;;27.40;99.90;;;;;;5179400;28;20045;-68
2023/10/04 12:49:12;;;;;;;1.88;1.27;;;28.50;99.90;;;;;;5165948;28;20039;-67
2023/10/04 12:51:48;;;;;;;2.33;1.30;;;28.70;99.90;;;;;;5163690;28;20037;-68
2023/10/04 12:54:23;;;;;;;2.50;1.30;;;27.70;99.90;;;;;;5182891;28;20338;-68
2023/10/04 12:56:59;;;;;;;3.80;1.42;;;25.70;99.90;;;;;;5198782;28;20029;-67
2023/10/04 12:59:33;;;;;;;4.15;1.25;;;25.50;85.60;;;;;;5165088;28;20038;-67
2023/10/04 13:02:05;;;;;;;3.50;1.55;;;26.50;99.90;;;;;;5164410;28;20243;-68
2023/10/04 13:04:37;;;;;;;1.77;1.10;;;27.20;99.90;;;;;;5199030;28;20045;-68
2023/10/04 13:07:08;;;;;;;2.05;1.30;;;27.80;99.90;;;;;;5179001;28;20048;-69
2023/10/04 13:09:44;;;;;;;2.30;1.55;;;27.90;1.00;;;;;;5198678;28;20203;-71
2023/10/04 13:12:17;;;;;;;2.05;1.38;;;27.60;1.00;;;;;;5185022;28;20033;-70
2023/10/04 13:14:48;;;;;;;2.05;1.30;;;27.70;99.90;;;;;;5183326;28;20040;-68
2023/10/04 13:17:25;;;;;;;2.93;1.60;;;27.50;99.90;;;;;;5181036;28;20211;-68
2023/10/04 13:19:59;;;;;;;3.25;1.40;;;26.10;99.90;;;;;;5202184;28;20039;-68
2023/10/04 13:22:32;;;;;;;;;;;26.20;99.90;;;;;;5172158;28;20030;-69
2023/10/04 13:25:06;;;;;;;2.10;1.33;;;26.10;99.90;;;;;;5196906;28;19920;-68
2023/10/04 13:27:38;;;;;;;2.67;1.55;;;26.30;99.90;;;;;;5184218;28;20148;-68
2023/10/04 13:30:14;;;;;;;2.63;1.40;;;26.60;99.90;;;;;;5158601;28;20049;-67
2023/10/04 13:32:48;;;;;;;2.88;1.40;;;27.10;1.00;;;;;;5175285;28;20648;-67
2023/10/04 13:35:20;;;;;;;2.33;1.27;;;27.10;1.00;;;;;;5186614;28;20076;-68
2023/10/04 13:37:54;;;;;;;1.75;1.10;;;27.50;1.00;;;;;;5179035;28;20034;-69